createdAt,value
2022-10-17T00:01:23.245Z,30.40
2022-10-17T00:04:25.511Z,30.20
2022-10-17T00:07:27.975Z,30.20
2022-10-17T00:10:30.248Z,30.20
2022-10-17T00:16:40.108Z,30.70
2022-10-17T00:19:43.091Z,30.50
2022-10-17T00:22:45.340Z,30.40
2022-10-17T00:25:47.281Z,30.60
2022-10-17T00:28:51.419Z,30.70
2022-10-17T00:31:57.289Z,30.70
2022-10-17T00:34:59.495Z,30.80
2022-10-17T00:38:01.359Z,30.60
2022-10-17T00:41:04.175Z,30.70
2022-10-17T00:44:31.100Z,31.00
2022-10-17T00:47:35.477Z,31.70
2022-10-17T00:50:39.677Z,31.80
2022-10-17T00:53:41.919Z,31.90
2022-10-17T00:56:46.791Z,32.30
2022-10-17T00:59:54.566Z,32.40
2022-10-17T01:02:56.544Z,32.10
2022-10-17T01:05:58.814Z,31.70
2022-10-17T01:09:00.754Z,31.70
2022-10-17T01:12:26.788Z,32.00
2022-10-17T01:15:55.417Z,32.10
2022-10-17T01:19:32.410Z,31.70
2022-10-17T01:23:10.218Z,32.00
2022-10-17T01:26:42.924Z,32.50
2022-10-17T01:29:55.134Z,32.60
2022-10-17T01:33:21.688Z,32.90
2022-10-17T01:36:42.054Z,33.00
2022-10-17T01:40:15.314Z,32.80
2022-10-17T01:43:39.662Z,32.60
2022-10-17T01:46:45.439Z,32.60
2022-10-17T01:49:51.152Z,32.90
2022-10-17T01:52:56.978Z,33.00
2022-10-17T01:56:03.106Z,32.70
2022-10-17T01:59:11.263Z,32.50
2022-10-17T02:02:14.884Z,32.20
2022-10-17T02:05:21.718Z,32.00
2022-10-17T02:08:44.835Z,32.10
2022-10-17T02:12:32.120Z,32.40
2022-10-17T02:15:42.621Z,32.20
2022-10-17T02:18:56.705Z,32.00
2022-10-17T02:22:14.638Z,31.40
2022-10-17T02:25:31.350Z,31.80
2022-10-17T02:28:45.138Z,32.70
2022-10-17T02:31:56.654Z,32.10
2022-10-17T02:35:02.477Z,32.20
2022-10-17T02:38:07.887Z,31.80
2022-10-17T02:41:13.551Z,31.90
2022-10-17T02:44:16.731Z,31.40
2022-10-17T02:47:37.146Z,31.60
2022-10-17T02:51:04.675Z,31.60
2022-10-17T02:54:31.825Z,31.70
2022-10-17T02:57:54.065Z,31.50
2022-10-17T03:00:56.167Z,31.60
2022-10-17T03:04:11.442Z,32.10
2022-10-17T03:07:13.615Z,31.00
2022-10-17T03:10:15.803Z,31.50
2022-10-17T03:13:18.011Z,31.20
2022-10-17T03:16:20.093Z,31.10
2022-10-17T03:19:22.011Z,30.50
2022-10-17T03:22:24.199Z,30.40
2022-10-17T03:25:26.286Z,30.50
2022-10-17T03:28:28.454Z,30.90
2022-10-17T03:31:30.422Z,31.30
2022-10-17T03:34:32.471Z,30.60
2022-10-17T03:37:34.286Z,31.00
2022-10-17T03:40:36.378Z,31.30
2022-10-17T03:43:39.471Z,30.20
2022-10-17T03:46:41.600Z,30.20
2022-10-17T03:49:43.544Z,30.10
2022-10-17T03:52:49.773Z,30.00
2022-10-17T03:55:51.652Z,30.30
2022-10-17T03:58:55.039Z,29.80
2022-10-17T04:01:57.122Z,30.00
2022-10-17T04:04:59.667Z,29.80
2022-10-17T04:08:04.013Z,29.60
2022-10-17T04:11:08.611Z,29.90
2022-10-17T04:14:10.667Z,30.00
2022-10-17T04:17:12.856Z,30.00
2022-10-17T04:20:14.873Z,30.30
2022-10-17T04:23:17.109Z,30.80
2022-10-17T04:26:18.996Z,29.40
2022-10-17T04:29:21.753Z,29.70
2022-10-17T04:32:24.473Z,30.70
2022-10-17T04:35:26.582Z,29.80
2022-10-17T04:38:29.505Z,29.80
2022-10-17T04:41:32.003Z,29.80
2022-10-17T04:44:35.540Z,29.70
2022-10-17T04:47:38.810Z,29.80
2022-10-17T04:50:40.790Z,29.60
2022-10-17T04:53:44.134Z,29.40
2022-10-17T04:56:47.193Z,29.50
2022-10-17T04:59:49.388Z,29.40
2022-10-17T05:02:51.278Z,29.10
2022-10-17T05:05:53.647Z,29.10
2022-10-17T05:08:55.817Z,29.20
2022-10-17T05:11:57.971Z,29.00
2022-10-17T05:14:59.886Z,29.20
2022-10-17T05:18:05.106Z,29.20
2022-10-17T05:21:07.488Z,29.10
2022-10-17T05:24:11.608Z,29.30
2022-10-17T05:27:13.657Z,29.60
2022-10-17T05:30:15.944Z,29.80
2022-10-17T05:33:17.889Z,29.40
2022-10-17T05:36:20.142Z,29.10
2022-10-17T05:39:23.335Z,28.70
2022-10-17T05:42:25.740Z,28.80
2022-10-17T05:45:27.737Z,29.10
2022-10-17T05:48:29.817Z,29.20
2022-10-17T05:51:34.047Z,29.10
2022-10-17T05:54:36.179Z,29.20
2022-10-17T05:57:42.466Z,29.20
2022-10-17T06:00:50.962Z,29.20
2022-10-17T06:03:52.868Z,29.40
2022-10-17T06:06:56.258Z,29.40
2022-10-17T06:09:59.074Z,29.60
2022-10-17T06:13:01.118Z,29.70
2022-10-17T06:16:03.160Z,29.60
2022-10-17T06:19:05.230Z,29.60
2022-10-17T06:22:07.649Z,29.70
2022-10-17T06:25:09.829Z,29.70
2022-10-17T06:28:12.856Z,29.80
2022-10-17T06:31:16.601Z,29.90
2022-10-17T06:34:18.577Z,29.90
2022-10-17T06:37:20.622Z,30.00
2022-10-17T06:40:22.569Z,30.30
2022-10-17T06:43:27.803Z,30.30
2022-10-17T06:46:29.922Z,30.20
2022-10-17T06:49:34.182Z,30.30
2022-10-17T06:52:36.148Z,30.30
2022-10-17T06:55:38.200Z,31.00
2022-10-17T06:58:40.862Z,31.50
2022-10-17T07:01:46.141Z,32.10
2022-10-17T07:04:49.070Z,32.10
2022-10-17T07:07:52.039Z,32.20
2022-10-17T07:10:54.394Z,32.10
2022-10-17T07:13:56.495Z,32.20
2022-10-17T07:16:59.448Z,32.30
2022-10-17T07:20:01.635Z,32.40
2022-10-17T07:23:03.943Z,32.40
2022-10-17T07:26:08.681Z,32.30
2022-10-17T07:29:11.837Z,32.40
2022-10-17T07:32:14.757Z,32.40
2022-10-17T07:35:16.789Z,32.50
2022-10-17T07:38:18.855Z,32.40
2022-10-17T07:41:21.898Z,32.50
2022-10-17T07:44:24.168Z,32.40
2022-10-17T07:47:26.456Z,32.40
2022-10-17T07:50:29.289Z,32.30
2022-10-17T07:53:31.674Z,32.30
2022-10-17T07:56:33.915Z,32.40
2022-10-17T07:59:38.172Z,32.50
2022-10-17T08:02:40.330Z,32.70
2022-10-17T08:05:42.360Z,32.80
2022-10-17T08:08:44.699Z,32.70
2022-10-17T08:11:46.824Z,32.70
2022-10-17T08:14:48.888Z,32.80
2022-10-17T08:17:50.896Z,32.60
2022-10-17T08:20:56.767Z,32.60
2022-10-17T08:24:02.841Z,33.20
2022-10-17T08:27:11.265Z,32.80
2022-10-17T08:30:13.426Z,32.60
2022-10-17T08:33:15.481Z,32.70
2022-10-17T08:36:19.121Z,32.70
2022-10-17T08:39:21.287Z,32.60
2022-10-17T08:42:51.187Z,32.40
2022-10-17T08:46:00.529Z,32.50
2022-10-17T08:49:08.749Z,32.50
2022-10-17T08:52:40.165Z,31.80
2022-10-17T08:55:50.523Z,31.30
2022-10-17T08:58:53.235Z,31.60
2022-10-17T09:02:13.938Z,31.50
2022-10-17T09:05:40.583Z,31.50
2022-10-17T09:09:08.590Z,31.50
2022-10-17T09:12:19.746Z,31.70
2022-10-17T09:15:22.705Z,31.30
2022-10-17T09:18:41.482Z,31.40
2022-10-17T09:22:02.873Z,31.70
2022-10-17T09:25:11.603Z,31.50
2022-10-17T09:28:33.594Z,31.20
2022-10-17T09:31:44.083Z,31.10
2022-10-17T09:34:46.591Z,31.60
2022-10-17T09:37:50.949Z,31.60
2022-10-17T09:40:59.465Z,31.50
2022-10-17T09:44:21.942Z,31.40
2022-10-17T09:48:06.537Z,31.10
2022-10-17T09:51:21.743Z,30.90
2022-10-17T09:54:33.413Z,31.30
2022-10-17T09:57:57.163Z,31.30
2022-10-17T10:01:22.906Z,31.20
2022-10-17T10:04:30.230Z,31.50
2022-10-17T10:07:39.343Z,31.30
2022-10-17T10:10:45.649Z,31.30
2022-10-17T10:13:48.664Z,31.10
2022-10-17T10:16:53.772Z,31.10
2022-10-17T10:19:56.478Z,31.70
2022-10-17T10:23:21.268Z,31.00
2022-10-17T10:26:29.911Z,30.80
2022-10-17T10:29:44.494Z,30.70
2022-10-17T10:32:48.750Z,30.90
2022-10-17T10:36:03.389Z,30.50
2022-10-17T10:39:06.026Z,30.90
2022-10-17T10:42:20.048Z,30.80
2022-10-17T10:45:46.910Z,30.50
2022-10-17T10:48:56.436Z,30.10
2022-10-17T10:52:00.309Z,30.10
2022-10-17T10:55:23.405Z,30.10
2022-10-17T10:58:57.048Z,30.20
2022-10-17T11:02:27.930Z,30.20
2022-10-17T11:05:51.361Z,30.10
2022-10-17T11:09:16.291Z,30.10
2022-10-17T11:12:23.063Z,30.00
2022-10-17T11:15:54.573Z,30.20
2022-10-17T11:19:20.488Z,30.50
2022-10-17T11:22:34.566Z,30.10
2022-10-17T11:25:42.213Z,30.10
2022-10-17T11:28:44.339Z,30.30
2022-10-17T11:31:52.080Z,30.20
2022-10-17T11:35:17.161Z,30.40
2022-10-17T11:38:36.152Z,30.40
2022-10-17T11:42:03.535Z,30.30
2022-10-17T11:45:16.764Z,30.50
2022-10-17T11:48:26.421Z,30.70
2022-10-17T11:55:24.480Z,29.80
2022-10-17T11:58:54.959Z,29.80
2022-10-17T12:02:06.839Z,29.20
2022-10-17T12:05:18.174Z,29.30
2022-10-17T12:08:39.388Z,29.10
2022-10-17T12:11:57.478Z,29.30
2022-10-17T12:15:17.452Z,29.10
2022-10-17T12:18:19.458Z,29.20
2022-10-17T12:21:22.461Z,28.90
2022-10-17T12:24:43.435Z,28.90
2022-10-17T12:27:48.155Z,28.70
2022-10-17T12:31:10.143Z,28.50
2022-10-17T12:34:17.676Z,28.50
2022-10-17T12:37:59.368Z,28.40
2022-10-17T12:41:05.703Z,28.50
2022-10-17T12:44:13.720Z,28.50
2022-10-17T12:47:16.303Z,28.90
2022-10-17T12:51:17.610Z,28.60
2022-10-17T12:54:22.557Z,28.30
2022-10-17T12:57:42.240Z,28.30
2022-10-17T13:01:19.157Z,27.90
2022-10-17T13:04:17.444Z,28.00
2022-10-17T13:07:23.420Z,28.20
2022-10-17T13:10:30.898Z,28.10
2022-10-17T13:13:48.913Z,28.40
2022-10-17T13:16:55.197Z,28.70
2022-10-17T13:19:58.538Z,28.30
2022-10-17T13:23:00.803Z,28.30
2022-10-17T13:26:27.355Z,28.20
2022-10-17T13:29:32.118Z,28.30
2022-10-17T13:32:39.603Z,27.90
2022-10-17T13:35:59.355Z,28.00
2022-10-17T13:39:16.941Z,28.00
2022-10-17T13:42:30.323Z,27.80
2022-10-17T13:45:34.930Z,27.90
2022-10-17T13:48:38.385Z,27.80
2022-10-17T13:51:44.536Z,28.00
2022-10-17T13:54:48.837Z,28.30
2022-10-17T13:57:52.444Z,28.10
2022-10-17T14:00:54.765Z,28.10
2022-10-17T14:04:08.430Z,28.40
2022-10-17T14:07:26.426Z,28.50
2022-10-17T14:10:39.788Z,28.70
2022-10-17T14:13:45.550Z,28.80
2022-10-17T14:16:48.177Z,28.70
2022-10-17T14:20:36.324Z,28.70
2022-10-17T14:23:48.244Z,28.80
2022-10-17T14:27:01.437Z,29.00
2022-10-17T14:30:51.557Z,29.00
2022-10-17T14:33:51.434Z,29.00
2022-10-17T14:36:54.701Z,29.20
2022-10-17T14:39:59.942Z,29.20
2022-10-17T14:43:06.019Z,29.30
2022-10-17T14:46:16.803Z,29.30
2022-10-17T14:49:33.048Z,29.50
2022-10-17T14:52:35.749Z,29.50
2022-10-17T14:55:55.872Z,29.60
2022-10-17T14:58:57.943Z,29.60
2022-10-17T15:02:00.175Z,29.50
2022-10-17T15:05:02.100Z,29.60
2022-10-17T15:08:07.964Z,29.60
2022-10-17T15:11:11.740Z,29.60
2022-10-17T15:14:13.835Z,29.70
2022-10-17T15:17:20.960Z,29.70
2022-10-17T15:20:26.194Z,29.70
2022-10-17T15:23:28.059Z,29.70
2022-10-17T15:26:32.790Z,29.70
2022-10-17T15:29:34.728Z,29.70
2022-10-17T15:32:36.899Z,29.60
2022-10-17T15:35:38.803Z,29.70
2022-10-17T15:38:40.903Z,29.60
2022-10-17T15:41:42.845Z,29.70
2022-10-17T15:44:49.316Z,29.70
2022-10-17T15:47:54.556Z,29.70
2022-10-17T15:50:57.083Z,29.80
2022-10-17T15:54:01.490Z,29.60
2022-10-17T15:57:04.245Z,29.90
2022-10-17T16:00:16.205Z,30.00
2022-10-17T16:06:29.122Z,30.20
2022-10-17T16:09:31.185Z,30.40
2022-10-17T16:12:36.972Z,30.40
2022-10-17T16:15:39.349Z,30.40
2022-10-17T16:18:41.449Z,30.50
2022-10-17T16:21:44.587Z,30.70
2022-10-17T16:24:48.889Z,30.90
2022-10-17T16:27:53.664Z,31.10
2022-10-17T16:30:55.709Z,31.20
2022-10-17T16:34:00.082Z,31.20
2022-10-17T16:37:01.983Z,31.20
2022-10-17T16:40:05.533Z,31.20
2022-10-17T16:43:13.421Z,31.20
2022-10-17T16:46:16.305Z,31.20
2022-10-17T16:49:18.791Z,31.60
2022-10-17T16:52:20.925Z,31.60
2022-10-17T16:55:22.802Z,31.50
2022-10-17T16:58:27.518Z,31.50
2022-10-17T17:01:29.860Z,31.80
2022-10-17T17:04:31.941Z,32.20
2022-10-17T17:07:34.138Z,31.80
2022-10-17T17:10:36.191Z,31.50
2022-10-17T17:13:38.560Z,31.70
2022-10-17T17:16:41.081Z,32.00
2022-10-17T17:19:42.994Z,31.90
2022-10-17T17:22:45.041Z,32.00
2022-10-17T17:25:50.769Z,31.70
2022-10-17T17:28:54.252Z,31.90
2022-10-17T17:31:56.298Z,31.80
2022-10-17T17:34:58.341Z,31.80
2022-10-17T17:38:02.960Z,31.40
2022-10-17T17:41:05.164Z,32.80
2022-10-17T17:44:11.215Z,32.00
2022-10-17T17:47:16.679Z,32.00
2022-10-17T17:50:18.551Z,32.00
2022-10-17T17:53:20.730Z,31.90
2022-10-17T17:56:28.078Z,32.70
2022-10-17T17:59:31.201Z,32.00
2022-10-17T18:02:33.243Z,32.00
2022-10-17T18:05:35.361Z,31.90
2022-10-17T18:08:37.456Z,31.70
2022-10-17T18:11:39.939Z,31.70
2022-10-17T18:14:41.879Z,31.70
2022-10-17T18:17:43.922Z,32.00
2022-10-17T18:20:55.506Z,31.90
2022-10-17T18:23:59.140Z,31.80
2022-10-17T18:27:01.158Z,31.60
2022-10-17T18:30:04.071Z,31.00
2022-10-17T18:33:06.122Z,31.50
2022-10-17T18:36:12.834Z,31.20
2022-10-17T18:39:14.842Z,31.10
2022-10-17T18:42:17.646Z,31.00
2022-10-17T18:45:19.733Z,31.40
2022-10-17T18:48:21.767Z,31.20
2022-10-17T18:51:25.485Z,31.00
2022-10-17T18:54:27.668Z,31.40
2022-10-17T18:57:30.065Z,31.00
2022-10-17T19:00:33.057Z,31.90
2022-10-17T19:03:35.033Z,31.50
2022-10-17T19:06:37.537Z,31.90
2022-10-17T19:09:39.396Z,32.20
2022-10-17T19:12:41.447Z,32.80
2022-10-17T19:15:43.322Z,33.90
2022-10-17T19:18:53.360Z,33.80
2022-10-17T19:21:55.458Z,34.40
2022-10-17T19:24:57.606Z,34.60
2022-10-17T19:27:59.493Z,34.70
2022-10-17T19:31:06.676Z,34.40
2022-10-17T19:34:09.905Z,33.90
2022-10-17T19:37:12.045Z,33.50
2022-10-17T19:40:14.176Z,33.30
2022-10-17T19:43:16.809Z,33.00
2022-10-17T19:46:24.538Z,32.20
2022-10-17T19:49:27.149Z,32.50
2022-10-17T19:52:29.370Z,32.30
2022-10-17T19:55:33.255Z,32.10
2022-10-17T19:58:43.803Z,32.40
2022-10-17T20:01:46.539Z,32.10
2022-10-17T20:04:59.983Z,32.40
2022-10-17T20:08:10.608Z,32.50
2022-10-17T20:11:14.921Z,32.60
2022-10-17T20:14:16.989Z,31.80
2022-10-17T20:17:18.852Z,32.00
2022-10-17T20:20:21.121Z,32.00
2022-10-17T20:23:23.115Z,32.20
2022-10-17T20:26:37.622Z,32.30
2022-10-17T20:29:40.788Z,32.30
2022-10-17T20:32:42.867Z,32.00
2022-10-17T20:38:58.674Z,31.70
2022-10-17T20:42:00.578Z,31.60
2022-10-17T20:45:03.024Z,31.40
2022-10-17T20:48:06.488Z,31.30
2022-10-17T20:51:10.123Z,31.50
2022-10-17T20:54:12.734Z,31.40
2022-10-17T20:57:14.847Z,31.50
2022-10-17T21:00:16.835Z,31.40
2022-10-17T21:03:18.885Z,31.70
2022-10-17T21:06:21.587Z,32.60
2022-10-17T21:09:24.435Z,31.70
2022-10-17T21:12:36.713Z,31.30
2022-10-17T21:15:45.302Z,31.70
2022-10-17T21:18:47.162Z,31.40
2022-10-17T21:21:49.586Z,33.00
2022-10-17T21:24:51.453Z,31.50
2022-10-17T21:27:53.591Z,31.60
2022-10-17T21:30:55.473Z,31.70
2022-10-17T21:34:00.048Z,31.80
2022-10-17T21:37:01.915Z,31.20
2022-10-17T21:40:04.575Z,31.20
2022-10-17T21:43:06.412Z,31.30
2022-10-17T21:46:18.654Z,31.70
2022-10-17T21:49:23.128Z,31.60
2022-10-17T21:52:25.163Z,31.80
2022-10-17T21:55:27.166Z,32.00
2022-10-17T21:58:30.048Z,31.80
2022-10-17T22:01:38.317Z,32.20
2022-10-17T22:04:40.494Z,31.50
2022-10-17T22:07:42.319Z,31.50
2022-10-17T22:10:44.360Z,31.10
2022-10-17T22:13:46.316Z,31.00
2022-10-17T22:16:49.379Z,30.80
2022-10-17T22:19:51.274Z,30.80
2022-10-17T22:22:53.325Z,30.80
2022-10-17T22:25:56.487Z,30.90
2022-10-17T22:28:58.700Z,30.70
2022-10-17T22:32:00.731Z,31.10
2022-10-17T22:35:02.784Z,31.30
2022-10-17T22:38:04.742Z,31.40
2022-10-17T22:41:06.888Z,31.10
2022-10-17T22:44:09.274Z,31.10
2022-10-17T22:47:11.331Z,31.10
2022-10-17T22:50:13.268Z,31.10
2022-10-17T22:53:23.124Z,31.10
2022-10-17T22:56:25.146Z,31.20
2022-10-17T22:59:27.250Z,31.70
2022-10-17T23:02:29.523Z,31.60
2022-10-17T23:05:31.821Z,31.00
2022-10-17T23:08:34.062Z,31.00
2022-10-17T23:11:36.120Z,31.00
2022-10-17T23:14:38.026Z,30.90
2022-10-17T23:17:40.089Z,31.00
2022-10-17T23:20:42.003Z,31.30
2022-10-17T23:23:44.115Z,31.10
2022-10-17T23:26:46.083Z,31.40
2022-10-17T23:29:48.116Z,31.00
2022-10-17T23:32:50.454Z,30.90
2022-10-17T23:35:52.516Z,31.00
2022-10-17T23:38:57.791Z,30.90
2022-10-17T23:42:00.801Z,30.60
2022-10-17T23:45:03.683Z,31.00
2022-10-17T23:48:05.971Z,30.50
2022-10-17T23:51:09.102Z,31.40
2022-10-17T23:54:11.269Z,31.10
2022-10-17T23:57:13.122Z,31.20
